Time;durP1;ratioP1;P1;durP2;ratioP2;P2;SDS_P1;SDS_P2;PMS_P1;PMS_P2;Temp;Humidity;BMP_temperature;BMP_pressure;BME280_temperature;BME280_humidity;BME280_pressure;Samples;Min_cycle;Max_cycle;Signal;HPM_P1;HPM_P2
2022/04/17 00:00:47;;;;;;;3.60;2.40;;;;;;;-1.09;nan;102689.16;5005269;28;20559;-75
2022/04/17 00:03:14;;;;;;;2.60;1.90;;;;;;;-1.17;nan;102698.19;4994405;28;20040;-76
2022/04/17 00:05:41;;;;;;;3.80;2.23;;;;;;;-1.24;nan;102690.84;4986378;28;20518;-75
2022/04/17 00:08:08;;;;;;;2.70;2.10;;;;;;;-1.24;nan;102696.03;4992959;28;20033;-76
2022/04/17 00:10:35;;;;;;;3.63;2.23;;;;;;;-1.24;nan;102696.03;5006543;28;20042;-76
2022/04/17 00:13:02;;;;;;;4.00;3.03;;;;;;;-1.25;nan;102687.34;5018333;28;20056;-76
2022/04/17 00:15:29;;;;;;;3.60;2.27;;;;;;;-1.20;nan;102683.31;5003247;28;20030;-76
2022/04/17 00:17:56;;;;;;;4.13;2.37;;;;;;;-1.13;nan;102684.56;5002732;28;20564;-76
2022/04/17 00:20:23;;;;;;;5.37;3.20;;;;;;;-1.17;nan;102680.94;5005503;28;20042;-76
2022/04/17 00:22:50;;;;;;;4.57;2.73;;;;;;;-1.16;nan;102674.94;4994593;28;20052;-75
2022/04/17 00:25:18;;;;;;;5.53;3.53;;;;;;;-1.15;nan;102681.00;4993303;28;20066;-75
2022/04/17 00:27:45;;;;;;;3.87;2.33;;;;;;;-1.13;nan;102679.41;5010969;28;20485;-76
2022/04/17 00:30:12;;;;;;;3.57;2.30;;;;;;;-1.19;nan;102679.03;5008109;28;20043;-76
2022/04/17 00:32:39;;;;;;;3.23;2.27;;;;;;;-1.23;nan;102680.56;4992834;28;20050;-76
2022/04/17 00:35:07;;;;;;;3.30;2.40;;;;;;;-1.20;nan;102678.13;5007290;28;20043;-78
2022/04/17 00:37:34;;;;;;;3.30;2.90;;;;;;;-1.14;nan;102682.78;4993575;28;20034;-75
2022/04/17 00:40:01;;;;;;;4.33;2.67;;;;;;;-1.20;nan;102672.94;5009252;28;20051;-77
2022/04/17 00:42:28;;;;;;;3.43;2.27;;;;;;;-1.27;nan;102678.56;5006573;28;20039;-75
2022/04/17 00:44:55;;;;;;;4.67;2.73;;;;;;;-1.40;nan;102676.06;4991855;28;20038;-76
2022/04/17 00:47:22;;;;;;;3.03;2.70;;;;;;;-1.40;nan;102676.06;4990369;28;20067;-76
2022/04/17 00:49:49;;;;;;;5.23;3.47;;;;;;;-1.37;nan;102678.81;5027776;28;20042;-76
2022/04/17 00:52:17;;;;;;;5.53;2.93;;;;;;;-1.32;nan;102672.22;4997821;28;20049;-76
2022/04/17 00:54:46;;;;;;;4.90;2.60;;;;;;;-1.37;nan;102668.44;5011197;28;20405;-76
2022/04/17 00:57:16;;;;;;;3.87;2.90;;;;;;;-1.36;nan;102677.13;5008874;28;20033;-76
2022/04/17 00:59:47;;;;;;;4.13;2.67;;;;;;;-1.36;nan;102667.63;5009033;28;20042;-76
2022/04/17 01:02:14;;;;;;;4.60;2.90;;;;;;;-1.42;nan;102662.13;5028890;28;20040;-76
2022/04/17 01:04:42;;;;;;;4.03;2.63;;;;;;;-1.45;nan;102661.91;5012527;28;20038;-76
2022/04/17 01:07:12;;;;;;;5.43;2.80;;;;;;;-1.52;nan;102660.63;5011358;28;20042;-76
2022/04/17 01:09:39;;;;;;;3.50;2.73;;;;;;;-1.60;nan;102645.44;5028302;28;20038;-76
2022/04/17 01:12:08;;;;;;;3.97;2.63;;;;;;;-1.60;nan;102654.09;5011340;28;20494;-76
2022/04/17 01:14:37;;;;;;;3.90;2.90;;;;;;;-1.57;nan;102648.22;5017264;28;20429;-76
2022/04/17 01:17:04;;;;;;;4.60;2.97;;;;;;;-1.60;nan;102648.91;5021451;28;20581;-76
2022/04/17 01:19:33;;;;;;;5.00;3.23;;;;;;;-1.60;nan;102648.00;5010932;28;20045;-76
2022/04/17 01:22:00;;;;;;;3.63;3.00;;;;;;;-1.62;nan;102644.44;5010987;28;20059;-76
2022/04/17 01:27:12;;;;;;;4.80;3.30;;;;;;;-1.62;nan;102642.75;5026215;28;20060;-75
2022/04/17 01:29:40;;;;;;;6.23;3.27;;;;;;;-1.48;nan;102641.00;5008548;28;20050;-76
2022/04/17 01:32:10;;;;;;;4.73;3.37;;;;;;;-1.41;nan;102645.75;5006634;28;20038;-76
2022/04/17 01:34:38;;;;;;;4.87;3.23;;;;;;;-1.54;nan;102641.50;5009981;28;20029;-76
2022/04/17 01:37:08;;;;;;;6.27;3.20;;;;;;;-1.60;nan;102640.25;5010438;28;20083;-76
2022/04/17 01:39:35;;;;;;;5.43;3.63;;;;;;;-1.54;nan;102635.44;5009830;28;20056;-76
2022/04/17 01:42:02;;;;;;;6.83;3.67;;;;;;;-1.59;nan;102631.69;4991697;28;20095;-76
2022/04/17 01:44:29;;;;;;;3.70;3.27;;;;;;;-1.66;nan;102629.53;5008545;28;20394;-76
2022/04/17 01:46:57;;;;;;;5.57;3.40;;;;;;;-1.74;nan;102631.66;5011277;28;20041;-76
2022/04/17 01:49:25;;;;;;;5.10;3.13;;;;;;;-1.81;nan;102632.06;5025928;28;20037;-76
2022/04/17 01:51:53;;;;;;;6.27;3.40;;;;;;;-1.82;nan;102632.88;5001693;28;20040;-76
2022/04/17 01:54:24;;;;;;;5.07;3.03;;;;;;;-1.78;nan;102633.13;4995751;28;20033;-76
2022/04/17 01:56:52;;;;;;;4.37;3.30;;;;;;;-1.79;nan;102641.72;5012994;28;20045;-76
2022/04/17 01:59:21;;;;;;;5.00;3.37;;;;;;;-1.84;nan;102637.97;5010552;28;20074;-76
2022/04/17 02:01:49;;;;;;;5.30;3.57;;;;;;;-1.87;nan;102632.59;4993287;28;20619;-76
2022/04/17 02:04:16;;;;;;;4.43;3.03;;;;;;;-1.92;nan;102636.59;5010388;28;20044;-76
2022/04/17 02:06:44;;;;;;;3.40;3.00;;;;;;;-1.92;nan;102639.19;5031228;28;20033;-76
2022/04/17 02:09:15;;;;;;;6.40;3.83;;;;;;;-1.91;nan;102625.44;5022230;28;20498;-77
2022/04/17 02:11:43;;;;;;;4.87;3.47;;;;;;;-1.94;nan;102630.41;5011930;28;20039;-76
2022/04/17 02:14:10;;;;;;;4.17;2.93;;;;;;;-1.88;nan;102628.22;4990802;28;20040;-77
2022/04/17 02:16:38;;;;;;;5.47;3.77;;;;;;;-1.89;nan;102625.53;5008322;28;20037;-76
2022/04/17 02:19:05;;;;;;;5.20;3.47;;;;;;;-1.95;nan;102618.25;5010230;28;20598;-76
2022/04/17 02:21:32;;;;;;;4.67;3.20;;;;;;;-2.02;nan;102621.28;5019048;28;20762;-77
2022/04/17 02:24:00;;;;;;;7.67;3.10;;;;;;;-2.04;nan;102617.69;5009516;28;20072;-77
2022/04/17 02:26:28;;;;;;;4.47;2.87;;;;;;;-2.02;nan;102624.78;5012484;28;20037;-76
2022/04/17 02:28:56;;;;;;;5.93;3.23;;;;;;;-2.06;nan;102620.19;5013062;28;20037;-76
2022/04/17 02:31:24;;;;;;;5.30;3.03;;;;;;;-2.12;nan;102612.03;4979231;28;20055;-76
2022/04/17 02:33:51;;;;;;;3.90;3.50;;;;;;;-2.13;nan;102615.44;5011280;28;20076;-76
2022/04/17 02:36:19;;;;;;;4.20;2.93;;;;;;;-2.13;nan;102615.44;5012534;28;20033;-76
2022/04/17 02:38:46;;;;;;;5.80;3.47;;;;;;;-2.18;nan;102609.09;5008311;28;20041;-76
2022/04/17 02:41:13;;;;;;;5.23;3.17;;;;;;;-2.13;nan;102610.25;5016407;28;20041;-75
2022/04/17 02:43:40;;;;;;;4.10;3.07;;;;;;;-2.10;nan;102610.47;4996869;28;20051;-76
2022/04/17 02:46:08;;;;;;;5.00;3.23;;;;;;;-2.13;nan;102612.84;5009482;28;20029;-75
2022/04/17 02:48:35;;;;;;;4.43;3.27;;;;;;;-2.16;nan;102604.91;4990442;28;20041;-76
2022/04/17 02:51:02;;;;;;;6.13;3.70;;;;;;;-2.20;nan;102602.91;5000014;28;20101;-77
2022/04/17 02:53:32;;;;;;;3.53;3.17;;;;;;;-2.26;nan;102599.94;5010611;28;20065;-77
2022/04/17 02:56:00;;;;;;;4.40;3.33;;;;;;;-2.34;nan;102596.88;4998708;28;20049;-77
2022/04/17 02:58:27;;;;;;;4.43;3.37;;;;;;;-2.37;nan;102596.66;5007410;28;20045;-76
2022/04/17 03:06:26;;;;;;;5.27;3.07;;;;;;;-2.42;nan;102592.03;5014671;28;20063;-77
2022/04/17 03:08:54;;;;;;;4.30;3.60;;;;;;;-2.39;nan;102589.63;5011070;28;20422;-77
2022/04/17 03:11:21;;;;;;;5.77;3.53;;;;;;;-2.40;nan;102588.72;5017043;28;20041;-77
2022/04/17 03:13:48;;;;;;;5.17;3.70;;;;;;;-2.35;nan;102591.63;5023674;28;20034;-76
2022/04/17 03:16:15;;;;;;;5.00;3.43;;;;;;;-2.37;nan;102583.72;5011345;28;20052;-76
2022/04/17 03:18:43;;;;;;;4.80;3.80;;;;;;;-2.40;nan;102587.84;4994567;28;20041;-76
2022/04/17 03:21:11;;;;;;;4.10;3.30;;;;;;;-2.41;nan;102576.59;5014077;28;20047;-76
2022/04/17 03:23:38;;;;;;;5.00;3.70;;;;;;;-2.42;nan;102582.56;5022396;28;20037;-76
2022/04/17 03:26:05;;;;;;;5.57;3.93;;;;;;;-2.40;nan;102574.88;5009967;28;20045;-76
2022/04/17 03:28:32;;;;;;;4.70;3.53;;;;;;;-2.43;nan;102578.19;5006542;28;20049;-76
2022/04/17 03:30:59;;;;;;;5.93;3.73;;;;;;;-2.51;nan;102570.75;5022369;28;20483;-76
2022/04/17 03:33:27;;;;;;;5.73;3.67;;;;;;;-2.53;nan;102564.56;5008596;28;20049;-76
2022/04/17 03:35:55;;;;;;;5.27;3.40;;;;;;;-2.51;nan;102565.56;5023494;28;20497;-76
2022/04/17 03:38:23;;;;;;;6.07;4.00;;;;;;;-2.54;nan;102571.41;4991912;28;20045;-76
2022/04/17 03:40:50;;;;;;;5.90;3.63;;;;;;;-2.56;nan;102571.34;5011042;28;20049;-76
2022/04/17 03:43:17;;;;;;;4.73;3.60;;;;;;;-2.60;nan;102577.13;5007792;28;20038;-76
2022/04/17 03:45:47;;;;;;;5.70;3.60;;;;;;;-2.58;nan;102574.63;5026391;28;20044;-76
2022/04/17 03:48:18;;;;;;;4.57;3.50;;;;;;;-2.62;nan;102568.34;5009792;28;20053;-76
2022/04/17 03:50:45;;;;;;;4.57;3.10;;;;;;;-2.55;nan;102572.22;5011055;28;20051;-76
2022/04/17 03:53:12;;;;;;;4.60;3.40;;;;;;;-2.55;nan;102575.72;4993183;28;20251;-77
2022/04/17 03:55:39;;;;;;;5.60;3.77;;;;;;;-2.58;nan;102572.94;4994896;28;20463;-77
2022/04/17 03:58:06;;;;;;;5.90;4.10;;;;;;;-2.58;nan;102578.13;5001708;28;20068;-77
2022/04/17 04:00:33;;;;;;;5.17;4.00;;;;;;;-2.57;nan;102566.06;5004417;28;20037;-76
2022/04/17 04:03:03;;;;;;;5.57;3.63;;;;;;;-2.60;nan;102577.13;5005900;28;20524;-76
2022/04/17 04:05:31;;;;;;;4.77;3.57;;;;;;;-2.60;nan;102571.06;4992683;28;20422;-76
2022/04/17 04:07:58;;;;;;;5.67;3.80;;;;;;;-2.63;nan;102573.44;5007404;28;20030;-76
2022/04/17 04:10:26;;;;;;;5.23;3.80;;;;;;;-2.59;nan;102583.19;5021814;28;20040;-77
2022/04/17 04:12:53;;;;;;;5.70;4.17;;;;;;;-2.58;nan;102572.03;5010324;28;20041;-76
2022/04/17 04:15:20;;;;;;;5.57;3.73;;;;;;;-2.60;nan;102574.53;5020886;28;20038;-77
2022/04/17 04:17:47;;;;;;;5.10;3.90;;;;;;;-2.64;nan;102574.22;5026176;28;20038;-77
2022/04/17 04:20:14;;;;;;;4.87;3.60;;;;;;;-2.66;nan;102575.84;4991224;28;20048;-76
2022/04/17 04:22:41;;;;;;;5.23;4.03;;;;;;;-2.59;nan;102583.19;4994095;28;20049;-76
2022/04/17 04:25:08;;;;;;;6.80;4.13;;;;;;;-2.64;nan;102575.13;5010046;28;20513;-76
2022/04/17 04:30:24;;;;;;;6.33;3.93;;;;;;;-2.73;nan;102574.53;5014161;28;20047;-75
2022/04/17 04:32:56;;;;;;;5.27;3.70;;;;;;;-2.71;nan;102574.63;5007462;28;20043;-76
2022/04/17 04:35:26;;;;;;;6.50;3.83;;;;;;;-2.67;nan;102574.94;4995837;28;20045;-76
2022/04/17 04:37:53;;;;;;;5.83;3.73;;;;;;;-2.59;nan;102576.31;5011366;28;20045;-76
2022/04/17 04:40:20;;;;;;;5.80;4.00;;;;;;;-2.56;nan;102580.78;5026170;28;20520;-74
2022/04/17 04:42:48;;;;;;;6.10;3.83;;;;;;;-2.55;nan;102572.22;5009940;28;20059;-76
2022/04/17 04:48:01;;;;;;;4.97;3.20;;;;;;;-2.46;nan;102582.25;5011905;28;20056;-77
2022/04/17 04:50:28;;;;;;;6.63;4.10;;;;;;;-2.44;nan;102584.13;5002611;28;20049;-76
2022/04/17 04:52:55;;;;;;;5.30;3.47;;;;;;;-2.41;nan;102579.19;5009233;28;20059;-75
2022/04/17 04:55:22;;;;;;;4.47;3.10;;;;;;;-2.37;nan;102580.25;5025433;28;20036;-76
2022/04/17 04:57:49;;;;;;;5.60;3.70;;;;;;;-2.36;nan;102582.94;4995317;28;20041;-76
2022/04/17 05:00:16;;;;;;;4.70;3.77;;;;;;;-2.28;nan;102575.63;5002142;28;20047;-76
2022/04/17 05:02:43;;;;;;;5.27;3.63;;;;;;;-2.23;nan;102578.53;5012852;28;20417;-75
2022/04/17 05:05:10;;;;;;;5.60;4.07;;;;;;;-2.18;nan;102574.53;4997829;28;20079;-75
2022/04/17 05:07:37;;;;;;;5.07;3.50;;;;;;;-2.19;nan;102575.31;5012680;28;20052;-76
2022/04/17 05:10:06;;;;;;;4.43;3.53;;;;;;;-2.14;nan;102585.16;5008864;28;20037;-76
2022/04/17 05:12:33;;;;;;;5.37;3.97;;;;;;;-2.08;nan;102577.78;5011481;28;20049;-74
2022/04/17 05:15:01;;;;;;;5.10;3.73;;;;;;;-2.03;nan;102565.09;5010932;28;20036;-76
2022/04/17 05:17:28;;;;;;;5.27;3.60;;;;;;;-2.02;nan;102561.69;5013935;28;20051;-76
2022/04/17 05:19:55;;;;;;;5.13;3.63;;;;;;;-1.89;nan;102560.75;4989744;28;20121;-76
2022/04/17 05:22:31;;;;;;;4.47;3.50;;;;;;;-1.83;nan;102564.63;5014889;28;20049;-76
2022/04/17 05:24:58;;;;;;;5.40;3.60;;;;;;;-1.74;nan;102557.41;5013921;28;20045;-76
2022/04/17 05:27:27;;;;;;;4.97;3.87;;;;;;;-1.73;nan;102566.97;4990762;28;20033;-75
2022/04/17 05:29:54;;;;;;;5.77;3.87;;;;;;;-1.62;nan;102570.19;5010758;28;20045;-76
2022/04/17 05:32:22;;;;;;;5.43;3.67;;;;;;;-1.54;nan;102568.03;5026041;28;20037;-75
2022/04/17 05:34:49;;;;;;;3.80;3.47;;;;;;;-1.49;nan;102572.72;5011342;28;20033;-76
2022/04/17 05:40:35;;;;;;;5.13;3.23;;;;;;;-1.20;nan;102566.59;5018858;28;20048;-78
2022/04/17 05:48:06;;;;;;;6.07;3.80;;;;;;;-0.85;nan;102567.72;4977039;28;20114;-76
2022/04/17 05:56:35;;;;;;;6.80;4.40;;;;;;;-0.70;nan;102578.97;4921453;29;20155;-78
2022/04/17 06:00:19;;;;;;;5.73;4.00;;;;;;;-0.61;nan;102582.06;4970706;28;20055;-78
2022/04/17 06:03:02;;;;;;;5.53;3.50;;;;;;;-0.48;nan;102577.56;4980693;28;20209;-77
2022/04/17 06:05:44;;;;;;;6.67;3.90;;;;;;;-0.36;nan;102586.03;4960730;28;20112;-77
2022/04/17 06:09:32;;;;;;;4.87;3.30;;;;;;;-0.22;nan;102574.69;4975264;28;20142;-77
2022/04/17 06:12:37;;;;;;;5.13;3.50;;;;;;;0.54;nan;102564.81;4976077;28;20133;-77
2022/04/17 06:16:04;;;;;;;5.10;3.70;;;;;;;0.74;nan;102568.41;4979771;28;20855;-78
2022/04/17 06:19:16;;;;;;;5.67;3.90;;;;;;;0.62;nan;102563.47;4974794;28;20550;-77
2022/04/17 06:22:40;;;;;;;10.20;5.50;;;;;;;0.59;nan;102562.41;4966571;28;20113;-77
2022/04/17 06:25:12;;;;;;;6.87;4.50;;;;;;;0.71;nan;102552.66;4967702;28;20126;-77
2022/04/17 06:27:47;;;;;;;5.90;4.77;;;;;;;0.90;nan;102546.63;4978454;28;20634;-77
2022/04/17 06:30:39;;;;;;;7.60;3.70;;;;;;;2.02;nan;102540.63;5004456;28;20136;-77
2022/04/17 06:33:09;;;;;;;4.47;3.30;;;;;;;3.83;nan;102531.47;4998167;28;20101;-79
2022/04/17 06:35:49;;;;;;;5.47;3.87;;;;;;;5.81;nan;102512.69;5002093;28;20478;-80
2022/04/17 06:38:17;;;;;;;7.00;3.37;;;;;;;6.47;nan;102500.53;5002605;28;20120;-79
2022/04/17 06:40:45;;;;;;;6.17;3.30;;;;;;;7.61;nan;102498.81;5018044;28;20149;-79
2022/04/17 06:43:12;;;;;;;5.93;3.50;;;;;;;7.56;nan;102503.06;5002688;28;20113;-80
2022/04/17 06:45:41;;;;;;;3.53;2.80;;;;;;;7.65;nan;102497.13;5015320;28;20598;-78
2022/04/17 06:51:52;;;;;;;5.30;3.40;;;;;;;7.22;nan;102497.06;4845157;29;20050;-81
2022/04/17 06:54:19;;;;;;;4.93;3.47;;;;;;;7.60;nan;102494.41;4897193;28;20538;-82
2022/04/17 06:56:49;;;;;;;3.73;2.70;;;;;;;7.99;nan;102493.41;4936287;28;20061;-80
2022/04/17 06:59:16;;;;;;;20.93;8.80;;;;;;;8.45;nan;102503.09;4945124;28;20066;-80
2022/04/17 07:01:43;;;;;;;26.50;11.70;;;;;;;8.99;nan;102489.94;4948599;28;20053;-80
2022/04/17 07:04:10;;;;;;;9.47;5.17;;;;;;;9.40;nan;102494.94;4952672;28;20042;-80
2022/04/17 07:06:37;;;;;;;4.20;3.10;;;;;;;9.36;nan;102490.50;4953095;28;20043;-79
2022/04/17 07:09:04;;;;;;;2.90;2.60;;;;;;;9.70;nan;102486.53;4967910;28;20046;-77
2022/04/17 07:11:31;;;;;;;3.90;2.87;;;;;;;9.79;nan;102493.69;4962808;28;20101;-80
2022/04/17 07:13:58;;;;;;;3.00;2.30;;;;;;;9.82;nan;102499.00;4956364;28;20058;-78
2022/04/17 07:16:25;;;;;;;5.85;4.15;;;;;;;9.90;nan;102491.16;4965916;28;20416;-79
2022/04/17 07:18:53;;;;;;;5.18;3.50;;;;;;;9.90;nan;102494.69;4933265;29;20057;-78
2022/04/17 07:21:20;;;;;;;3.25;2.13;;;;;;;9.62;nan;102495.22;4949457;28;20571;-80
2022/04/17 07:23:47;;;;;;;5.93;3.88;;;;;;;9.95;nan;102498.28;4964659;28;20545;-78
2022/04/17 07:26:14;;;;;;;3.35;2.28;;;;;;;9.88;nan;102494.69;4948431;28;20034;-79
2022/04/17 07:28:41;;;;;;;3.70;2.25;;;;;;;9.88;nan;102488.50;4983081;28;20049;-80
2022/04/17 07:31:08;;;;;;;12.52;6.60;;;;;;;9.97;nan;102493.00;5005012;28;20044;-80
2022/04/17 07:33:35;;;;;;;3.42;2.20;;;;;;;10.08;nan;102486.97;5007714;28;20382;-79
2022/04/17 07:36:03;;;;;;;16.50;7.60;;;;;;;10.21;nan;102480.06;5000967;28;20577;-81
2022/04/17 07:38:30;;;;;;;6.90;3.67;;;;;;;10.15;nan;102478.25;4954480;28;1080460;-79
2022/04/17 07:40:57;;;;;;;4.30;2.80;;;;;;;9.94;nan;102488.59;4993793;28;20046;-77
2022/04/17 07:43:24;;;;;;;3.78;2.58;;;;;;;10.08;nan;102479.03;5012794;28;20153;-80
2022/04/17 07:45:52;;;;;;;3.08;2.17;;;;;;;10.34;nan;102483.72;4996554;28;20130;-81
2022/04/17 07:48:19;;;;;;;4.55;2.78;;;;;;;10.48;nan;102482.13;4991389;28;20034;-81
2022/04/17 07:50:47;;;;;;;4.47;2.72;;;;;;;10.58;nan;102480.44;4998528;28;20125;-80
2022/04/17 07:53:15;;;;;;;6.95;2.65;;;;;;;10.49;nan;102480.34;5017353;28;20102;-80
2022/04/17 07:55:42;;;;;;;3.42;2.42;;;;;;;10.71;nan;102475.28;5001683;28;20101;-79
2022/04/17 07:58:14;;;;;;;4.38;2.60;;;;;;;10.85;nan;102477.16;5013492;28;20089;-78
2022/04/17 08:00:57;;;;;;;4.25;3.00;;;;;;;10.74;nan;102469.13;4999275;28;20586;-81
2022/04/17 08:03:35;;;;;;;4.00;3.00;;;;;;;10.79;nan;102462.13;5012796;28;20129;-79
2022/04/17 08:06:05;;;;;;;3.97;3.05;;;;;;;10.83;nan;102468.31;5004556;28;20555;-79
2022/04/17 08:08:34;;;;;;;4.68;3.03;;;;;;;10.87;nan;102460.41;4973211;28;20053;-77
2022/04/17 08:11:01;;;;;;;4.70;3.15;;;;;;;10.96;nan;102459.59;5007218;28;20045;-80
2022/04/17 08:13:28;;;;;;;4.78;3.50;;;;;;;10.85;nan;102464.81;5025156;28;20063;-81
2022/04/17 08:15:56;;;;;;;6.20;3.60;;;;;;;10.68;nan;102459.41;4996565;28;20101;-84
2022/04/17 08:18:23;;;;;;;5.72;3.70;;;;;;;10.71;nan;102454.13;4991041;28;20124;-82
2022/04/17 08:20:50;;;;;;;5.47;3.67;;;;;;;10.42;nan;102445.97;4992502;28;20126;-79
2022/04/17 08:23:17;;;;;;;4.57;3.25;;;;;;;10.60;nan;102447.88;4993995;28;20114;-81
2022/04/17 08:25:46;;;;;;;6.25;3.00;;;;;;;10.59;nan;102446.09;5015001;28;20098;-79
2022/04/17 08:28:14;;;;;;;4.30;2.92;;;;;;;10.76;nan;102440.03;5009073;28;20133;-78
2022/04/17 08:30:41;;;;;;;5.90;2.88;;;;;;;10.74;nan;102437.38;4993164;28;20133;-79
2022/04/17 08:33:08;;;;;;;5.05;3.55;;;;;;;10.85;nan;102425.16;5000098;28;20093;-81
2022/04/17 08:35:35;;;;;;;5.10;3.85;;;;;;;10.43;nan;102429.25;5009872;28;20121;-81
2022/04/17 08:38:03;;;;;;;5.57;3.63;;;;;;;10.64;nan;102423.22;4994999;28;20022;-80
2022/04/17 08:40:31;;;;;;;4.95;3.30;;;;;;;10.75;nan;102415.38;5007013;28;20125;-79
2022/04/17 08:42:59;;;;;;;5.35;3.70;;;;;;;10.68;nan;102401.25;5011500;28;20126;-80
2022/04/17 08:45:27;;;;;;;5.47;3.60;;;;;;;10.86;nan;102411.06;5004257;28;20493;-81
2022/04/17 08:47:55;;;;;;;4.25;3.38;;;;;;;11.04;nan;102412.91;4992603;28;20046;-81
2022/04/17 08:50:22;;;;;;;6.38;3.42;;;;;;;11.57;nan;102409.63;5012729;28;20113;-80
2022/04/17 08:52:53;;;;;;;5.28;3.63;;;;;;;11.84;nan;102406.19;4981914;28;20471;-80
2022/04/17 08:55:20;;;;;;;5.40;3.30;;;;;;;11.89;nan;102407.09;4986546;28;20038;-81
2022/04/17 08:57:48;;;;;;;5.55;3.28;;;;;;;12.24;nan;102403.59;4995845;28;20030;-81
2022/04/17 09:00:20;;;;;;;3.63;2.60;;;;;;;12.37;nan;102402.75;5003522;28;20048;-81
2022/04/17 09:02:48;;;;;;;5.85;3.40;;;;;;;12.28;nan;102408.94;5008458;28;20038;-81
2022/04/17 09:05:18;;;;;;;5.82;3.67;;;;;;;12.55;nan;102401.84;5010549;28;20113;-80
2022/04/17 09:07:56;;;;;;;3.40;3.03;;;;;;;12.64;nan;102400.06;5003307;28;20097;-81
2022/04/17 09:10:31;;;;;;;3.83;3.03;;;;;;;12.72;nan;102391.22;5012695;28;20056;-81
2022/04/17 09:12:59;;;;;;;3.90;2.72;;;;;;;12.42;nan;102394.78;4998320;28;20125;-82
2022/04/17 09:15:30;;;;;;;5.75;3.70;;;;;;;12.47;nan;102395.66;5002688;28;20121;-82
2022/04/17 09:17:57;;;;;;;5.70;2.72;;;;;;;12.65;nan;102379.72;4984987;28;20121;-84
2022/04/17 09:20:26;;;;;;;3.38;2.50;;;;;;;12.60;nan;102386.78;4999291;28;20120;-81
2022/04/17 09:22:59;;;;;;;3.60;2.42;;;;;;;12.57;nan;102390.34;5000673;28;20105;-81
2022/04/17 09:25:26;;;;;;;3.97;2.50;;;;;;;12.61;nan;102385.91;5007425;28;20030;-80
2022/04/17 09:28:01;;;;;;;3.45;2.25;;;;;;;12.60;nan;102376.19;5016362;28;20121;-82
2022/04/17 09:30:30;;;;;;;4.63;2.63;;;;;;;12.41;nan;102377.97;4998727;28;20110;-83
2022/04/17 09:33:07;;;;;;;4.03;2.83;;;;;;;12.52;nan;102377.97;5002618;28;20117;-81
2022/04/17 09:35:34;;;;;;;3.75;2.95;;;;;;;12.09;nan;102370.03;4983233;28;20141;-80
2022/04/17 09:38:07;;;;;;;3.50;2.47;;;;;;;12.54;nan;102373.56;5007913;28;20491;-80
2022/04/17 09:40:36;;;;;;;3.90;2.47;;;;;;;13.00;nan;102358.41;4983227;28;20118;-80
2022/04/17 09:43:11;;;;;;;4.00;2.42;;;;;;;13.22;nan;102373.41;5017141;28;20106;-79
2022/04/17 09:46:03;;;;;;;5.32;2.30;;;;;;;13.60;nan;102363.47;5017221;28;20124;-81
2022/04/17 09:48:30;;;;;;;4.63;2.97;;;;;;;13.66;nan;102360.78;5016961;28;20097;-81
2022/04/17 09:50:58;;;;;;;4.18;2.70;;;;;;;13.63;nan;102351.09;5013972;28;20117;-80
2022/04/17 09:53:36;;;;;;;4.03;2.55;;;;;;;13.46;nan;102343.22;5002146;28;20124;-81
2022/04/17 09:56:12;;;;;;;2.60;2.20;;;;;;;13.39;nan;102336.19;4997257;28;20109;-79
2022/04/17 09:58:48;;;;;;;3.70;2.50;;;;;;;13.13;nan;102317.69;5012530;28;20113;-80
2022/04/17 10:01:18;;;;;;;3.90;2.45;;;;;;;12.89;nan;102334.59;4985444;28;20117;-79
2022/04/17 10:03:46;;;;;;;4.20;2.90;;;;;;;13.01;nan;102332.75;5002288;28;20136;-79
2022/04/17 10:06:13;;;;;;;3.80;2.53;;;;;;;13.23;nan;102335.38;5016481;28;20488;-80
2022/04/17 10:08:45;;;;;;;4.07;2.88;;;;;;;13.75;nan;102326.19;4995528;28;20097;-79
2022/04/17 10:11:15;;;;;;;4.65;2.95;;;;;;;14.01;nan;102345.50;5006855;28;20109;-79
2022/04/17 10:13:44;;;;;;;3.60;2.40;;;;;;;14.42;nan;102336.28;5005876;28;20109;-81
2022/04/17 10:16:13;;;;;;;3.60;2.55;;;;;;;14.79;nan;102339.44;5002875;28;20129;-80
2022/04/17 10:18:42;;;;;;;4.30;3.22;;;;;;;14.59;nan;102337.03;4986672;28;20106;-81
2022/04/17 10:21:12;;;;;;;7.28;3.47;;;;;;;14.62;nan;102342.28;5018256;28;20113;-81
2022/04/17 10:23:44;;;;;;;4.47;3.40;;;;;;;14.97;nan;102332.19;4998203;28;20327;-82
2022/04/17 10:26:13;;;;;;;4.25;3.22;;;;;;;15.01;nan;102321.47;5016978;28;20193;-80
2022/04/17 10:28:44;;;;;;;4.20;3.60;;;;;;;15.10;nan;102325.78;4998056;28;20045;-79
2022/04/17 10:31:17;;;;;;;3.97;3.05;;;;;;;15.60;nan;102325.09;4978451;28;20125;-82
2022/04/17 10:34:10;;;;;;;5.20;3.72;;;;;;;15.06;nan;102321.41;5010602;28;20094;-80
2022/04/17 10:37:01;;;;;;;4.00;3.33;;;;;;;14.62;nan;102325.44;5017911;28;20594;-82
2022/04/17 10:39:41;;;;;;;3.63;3.15;;;;;;;14.39;nan;102325.69;5001655;28;20134;-82
2022/04/17 10:42:10;;;;;;;6.38;4.15;;;;;;;13.97;nan;102325.16;5018916;28;20128;-81
2022/04/17 10:44:45;;;;;;;6.05;4.13;;;;;;;13.18;nan;102322.97;4981834;28;20129;-81
2022/04/17 10:47:20;;;;;;;4.85;3.13;;;;;;;13.73;nan;102312.94;5003374;28;20149;-81
2022/04/17 10:49:56;;;;;;;5.57;3.95;;;;;;;14.05;nan;102312.69;4981376;28;20042;-79
2022/04/17 10:52:29;;;;;;;5.60;3.90;;;;;;;14.17;nan;102303.72;5022029;28;20113;-79
2022/04/17 10:55:10;;;;;;;5.38;3.72;;;;;;;14.24;nan;102308.09;5000189;28;20578;-80
2022/04/17 10:57:46;;;;;;;4.60;3.92;;;;;;;13.88;nan;102289.81;5015782;28;20121;-81
2022/04/17 11:00:38;;;;;;;5.32;4.18;;;;;;;13.87;nan;102278.28;5001967;28;20578;-80
2022/04/17 11:03:26;;;;;;;4.97;3.72;;;;;;;14.13;nan;102282.50;5013217;28;20105;-81
2022/04/17 11:06:17;;;;;;;6.47;3.95;;;;;;;14.36;nan;102278.72;4999196;28;20133;-80
2022/04/17 11:08:51;;;;;;;6.30;4.43;;;;;;;14.48;nan;102282.19;5009496;28;20041;-79
2022/04/17 11:11:18;;;;;;;5.22;4.30;;;;;;;14.63;nan;102287.34;5011748;28;20038;-81
2022/04/17 11:14:08;;;;;;;5.72;4.05;;;;;;;14.74;nan;102287.22;4987866;28;20050;-80
2022/04/17 11:16:46;;;;;;;5.57;4.40;;;;;;;14.73;nan;102280.13;4989039;28;20046;-80
2022/04/17 11:19:15;;;;;;;5.47;4.05;;;;;;;14.57;nan;102271.44;4995028;28;20054;-82
2022/04/17 11:21:47;;;;;;;4.78;4.13;;;;;;;14.43;nan;102265.34;5012579;28;20041;-80
2022/04/17 11:24:14;;;;;;;5.88;4.88;;;;;;;14.55;nan;102276.78;5015839;28;20045;-81
2022/04/17 11:26:50;;;;;;;6.20;5.18;;;;;;;13.70;nan;102269.56;4993596;28;20038;-82
2022/04/17 11:29:43;;;;;;;5.57;4.25;;;;;;;13.90;nan;102262.34;5011644;28;20044;-80
2022/04/17 11:32:16;;;;;;;6.82;4.93;;;;;;;14.17;nan;102269.16;5001536;28;20056;-80
2022/04/17 11:34:46;;;;;;;6.18;4.57;;;;;;;14.61;nan;102263.41;5012720;28;20045;-80
2022/04/17 11:37:16;;;;;;;6.75;5.22;;;;;;;14.13;nan;102259.47;5031560;28;20045;-82
2022/04/17 11:39:44;;;;;;;5.43;4.50;;;;;;;14.21;nan;102243.41;5007472;28;20057;-82
2022/04/17 11:42:12;;;;;;;9.02;4.88;;;;;;;14.62;nan;102241.22;5001186;28;20149;-82
2022/04/17 11:44:40;;;;;;;5.13;4.50;;;;;;;14.83;nan;102252.50;5008421;28;20042;-81
2022/04/17 11:47:10;;;;;;;5.03;4.53;;;;;;;14.81;nan;102246.34;5013899;28;20109;-81
2022/04/17 11:49:41;;;;;;;8.27;5.03;;;;;;;15.11;nan;102239.69;5012545;28;20042;-81
2022/04/17 11:52:16;;;;;;;6.07;4.93;;;;;;;15.24;nan;102235.97;5012584;28;20104;-82
2022/04/17 11:54:45;;;;;;;5.97;4.78;;;;;;;14.77;nan;102242.81;5011395;28;20045;-82
2022/04/17 11:57:19;;;;;;;5.03;4.53;;;;;;;14.91;nan;102234.66;5012830;28;20044;-82
2022/04/17 11:59:57;;;;;;;5.43;4.80;;;;;;;14.35;nan;102230.88;5012357;28;20072;-81
2022/04/17 12:02:25;;;;;;;6.32;5.30;;;;;;;14.17;nan;102220.44;5014054;28;20117;-81
2022/04/17 12:04:55;;;;;;;5.78;4.90;;;;;;;14.47;nan;102221.94;5012014;28;20402;-81
2022/04/17 12:07:23;;;;;;;5.70;4.53;;;;;;;14.87;nan;102227.59;5030405;28;20124;-81
2022/04/17 12:10:08;;;;;;;6.20;5.18;;;;;;;14.06;nan;102221.44;5036345;28;20085;-83
2022/04/17 12:12:37;;;;;;;6.47;5.00;;;;;;;14.47;nan;102222.81;5007714;28;20135;-81
2022/04/17 12:15:05;;;;;;;5.53;4.80;;;;;;;14.28;nan;102211.44;5019217;28;20036;-81
2022/04/17 12:17:33;;;;;;;5.43;4.93;;;;;;;14.34;nan;102203.41;4997593;28;20114;-82
2022/04/17 12:20:06;;;;;;;6.07;4.63;;;;;;;14.65;nan;102203.09;5020473;28;20117;-81
2022/04/17 12:22:35;;;;;;;6.07;4.78;;;;;;;14.43;nan;102205.06;5016942;28;20114;-81
2022/04/17 12:25:04;;;;;;;10.95;4.57;;;;;;;14.73;nan;102195.88;5005611;28;20534;-80
2022/04/17 12:27:31;;;;;;;5.00;4.43;;;;;;;15.01;nan;102193.72;4998959;28;20048;-81
2022/04/17 12:29:58;;;;;;;6.85;5.03;;;;;;;15.15;nan;102194.41;4981228;28;20042;-80